createdAt,value
2023-02-06T00:01:08.841Z,3.50
2023-02-06T00:04:30.657Z,1.45
2023-02-06T00:07:52.493Z,1.67
2023-02-06T00:11:18.078Z,1.38
2023-02-06T00:14:39.646Z,1.67
2023-02-06T00:18:01.873Z,1.70
2023-02-06T00:21:26.031Z,3.08
2023-02-06T00:24:48.326Z,2.35
2023-02-06T00:28:11.951Z,2.20
2023-02-06T00:31:34.005Z,1.65
2023-02-06T00:34:55.972Z,1.50
2023-02-06T00:38:18.096Z,1.83
2023-02-06T00:41:39.736Z,1.70
2023-02-06T00:45:03.067Z,1.95
2023-02-06T00:48:25.328Z,1.30
2023-02-06T00:51:47.247Z,1.65
2023-02-06T00:55:09.334Z,2.13
2023-02-06T00:58:31.496Z,1.80
2023-02-06T01:01:54.738Z,1.83
2023-02-06T01:05:16.813Z,1.63
2023-02-06T01:08:38.694Z,1.55
2023-02-06T01:12:00.709Z,1.30
2023-02-06T01:15:22.741Z,1.17
2023-02-06T01:18:45.996Z,2.35
2023-02-06T01:22:08.299Z,1.83
2023-02-06T01:25:30.870Z,1.77
2023-02-06T01:28:52.732Z,1.95
2023-02-06T01:32:15.005Z,2.13
2023-02-06T01:35:38.331Z,1.85
2023-02-06T01:39:00.424Z,1.25
2023-02-06T01:42:22.328Z,1.77
2023-02-06T01:45:46.393Z,1.60
2023-02-06T01:49:11.766Z,1.42
2023-02-06T01:52:35.090Z,1.48
2023-02-06T01:56:01.234Z,1.60
2023-02-06T01:59:24.430Z,1.63
2023-02-06T02:02:49.685Z,1.92
2023-02-06T02:06:14.179Z,1.52
2023-02-06T02:09:38.307Z,2.05
2023-02-06T02:13:00.477Z,1.38
2023-02-06T02:16:28.246Z,1.73
2023-02-06T02:20:29.156Z,2.30
2023-02-06T02:23:58.416Z,2.58
2023-02-06T02:27:44.790Z,1.80
2023-02-06T02:31:28.704Z,2.15
2023-02-06T02:35:07.945Z,1.80
2023-02-06T02:38:42.772Z,2.15
2023-02-06T02:42:13.063Z,1.50
2023-02-06T02:45:41.713Z,3.45
2023-02-06T02:49:08.543Z,2.63
2023-02-06T02:52:31.664Z,1.73
2023-02-06T02:55:53.898Z,1.83
2023-02-06T02:59:23.884Z,3.03
2023-02-06T03:02:48.275Z,2.15
2023-02-06T03:06:28.186Z,2.38
2023-02-06T03:10:01.971Z,2.00
2023-02-06T03:13:31.086Z,2.30
2023-02-06T03:16:59.739Z,2.30
2023-02-06T03:20:23.071Z,2.10
2023-02-06T03:23:48.429Z,1.55
2023-02-06T03:27:15.228Z,1.98
2023-02-06T03:30:40.131Z,2.13
2023-02-06T03:34:08.472Z,1.33
2023-02-06T03:37:31.163Z,1.80
2023-02-06T03:40:56.057Z,1.85
2023-02-06T03:44:23.657Z,1.95
2023-02-06T03:47:48.009Z,1.70
2023-02-06T03:51:13.634Z,1.98
2023-02-06T03:54:40.562Z,1.65
2023-02-06T03:58:06.511Z,2.15
2023-02-06T04:01:30.378Z,2.47
2023-02-06T04:04:52.575Z,2.63
2023-02-06T04:08:14.655Z,2.25
2023-02-06T04:11:36.654Z,2.80
2023-02-06T04:14:58.550Z,2.00
2023-02-06T04:18:21.709Z,2.58
2023-02-06T04:21:43.845Z,1.30
2023-02-06T04:25:05.956Z,2.58
2023-02-06T04:28:28.279Z,3.00
2023-02-06T04:31:50.261Z,2.70
2023-02-06T04:35:13.665Z,2.28
2023-02-06T04:38:35.373Z,2.83
2023-02-06T04:41:57.582Z,2.22
2023-02-06T04:45:19.414Z,2.22
2023-02-06T04:48:41.145Z,2.40
2023-02-06T04:52:04.526Z,2.92
2023-02-06T04:55:26.376Z,2.08
2023-02-06T04:58:48.707Z,1.92
2023-02-06T05:02:10.568Z,1.88
2023-02-06T05:05:32.547Z,5.15
2023-02-06T05:08:55.860Z,4.63
2023-02-06T05:12:18.300Z,3.33
2023-02-06T05:15:40.826Z,2.63
2023-02-06T05:19:02.931Z,3.28
2023-02-06T05:22:24.815Z,1.88
2023-02-06T05:25:49.392Z,1.50
2023-02-06T05:29:11.181Z,3.13
2023-02-06T05:32:33.324Z,2.40
2023-02-06T05:35:55.123Z,2.40
2023-02-06T05:39:17.044Z,2.20
2023-02-06T05:42:40.501Z,1.83
2023-02-06T05:46:03.161Z,2.20
2023-02-06T05:49:25.037Z,2.88
2023-02-06T05:52:47.033Z,2.10
2023-02-06T05:56:09.161Z,2.92
2023-02-06T05:59:32.361Z,4.10
2023-02-06T06:02:54.599Z,2.28
2023-02-06T06:06:16.472Z,2.88
2023-02-06T06:09:38.609Z,2.92
2023-02-06T06:13:00.717Z,2.25
2023-02-06T06:16:24.195Z,3.28
2023-02-06T06:19:46.227Z,2.47
2023-02-06T06:23:09.475Z,2.88
2023-02-06T06:26:31.740Z,2.95
2023-02-06T06:29:53.888Z,3.13
2023-02-06T06:33:17.976Z,4.30
2023-02-06T06:36:40.145Z,4.90
2023-02-06T06:40:02.088Z,3.63
2023-02-06T06:43:25.948Z,2.88
2023-02-06T06:46:48.045Z,2.25
2023-02-06T06:50:11.623Z,3.40
2023-02-06T06:53:33.708Z,4.00
2023-02-06T06:56:55.718Z,3.15
2023-02-06T07:00:18.147Z,3.05
2023-02-06T07:03:40.051Z,5.68
2023-02-06T07:07:03.402Z,7.55
2023-02-06T07:10:25.215Z,5.72
2023-02-06T07:13:47.269Z,5.47
2023-02-06T07:17:09.309Z,4.53
2023-02-06T07:20:31.034Z,3.22
2023-02-06T07:23:54.408Z,3.75
2023-02-06T07:27:16.727Z,2.72
2023-02-06T07:30:38.962Z,2.28
2023-02-06T07:34:02.393Z,2.80
2023-02-06T07:37:24.309Z,4.05
2023-02-06T07:40:47.624Z,1.63
2023-02-06T07:44:09.151Z,2.13
2023-02-06T07:47:30.990Z,2.88
2023-02-06T07:50:53.104Z,2.83
2023-02-06T07:54:15.197Z,2.28
2023-02-06T07:57:38.612Z,2.15
2023-02-06T08:01:05.319Z,4.75
2023-02-06T08:04:29.490Z,2.42
2023-02-06T08:07:52.095Z,3.75
2023-02-06T08:11:15.761Z,2.72
2023-02-06T08:14:39.212Z,3.60
2023-02-06T08:18:01.381Z,3.45
2023-02-06T08:21:25.588Z,4.10
2023-02-06T08:24:48.296Z,4.28
2023-02-06T08:28:10.291Z,3.33
2023-02-06T08:31:36.099Z,2.50
2023-02-06T08:34:57.832Z,2.00
2023-02-06T08:38:19.732Z,2.70
2023-02-06T08:41:43.677Z,4.18
2023-02-06T08:45:06.639Z,2.70
2023-02-06T08:48:29.901Z,3.20
2023-02-06T08:51:51.690Z,3.22
2023-02-06T08:55:13.521Z,4.20
2023-02-06T08:58:36.071Z,2.33
2023-02-06T09:01:57.958Z,2.58
2023-02-06T09:05:21.615Z,2.55
2023-02-06T09:08:44.789Z,3.30
2023-02-06T09:12:07.015Z,2.72
2023-02-06T09:15:29.221Z,2.88
2023-02-06T09:18:54.195Z,4.00
2023-02-06T09:22:18.665Z,2.38
2023-02-06T09:25:40.672Z,2.70
2023-02-06T09:29:05.658Z,3.03
2023-02-06T09:32:27.380Z,3.55
2023-02-06T09:35:49.575Z,3.60
2023-02-06T09:39:13.112Z,2.10
2023-02-06T09:42:39.885Z,3.15
2023-02-06T09:46:06.503Z,21.10
2023-02-06T09:49:36.925Z,8.40
2023-02-06T09:53:07.654Z,6.50
2023-02-06T09:56:39.857Z,4.47
2023-02-06T10:00:07.443Z,3.00
2023-02-06T10:03:43.079Z,2.80
2023-02-06T10:07:18.861Z,3.25
2023-02-06T10:10:44.995Z,3.20
2023-02-06T10:14:19.197Z,2.90
2023-02-06T10:17:53.618Z,4.60
2023-02-06T10:21:26.931Z,3.55
2023-02-06T10:24:59.089Z,4.07
2023-02-06T10:28:27.045Z,6.15
2023-02-06T10:32:09.773Z,5.00
2023-02-06T10:35:41.950Z,3.27
2023-02-06T10:39:36.842Z,3.40
2023-02-06T10:43:04.567Z,3.88
2023-02-06T10:46:38.878Z,5.85
2023-02-06T10:50:12.308Z,4.55
2023-02-06T10:53:37.446Z,4.10
2023-02-06T10:57:01.066Z,1.92
2023-02-06T11:00:26.175Z,3.30
2023-02-06T11:03:53.799Z,4.70
2023-02-06T11:07:22.760Z,1.88
2023-02-06T11:10:46.516Z,6.53
2023-02-06T11:14:15.369Z,5.10
2023-02-06T11:17:37.410Z,4.47
2023-02-06T11:20:59.830Z,3.50
2023-02-06T11:24:24.636Z,2.90
2023-02-06T11:27:47.018Z,3.45
2023-02-06T11:31:10.577Z,2.53
2023-02-06T11:34:35.757Z,2.90
2023-02-06T11:38:09.413Z,1.60
2023-02-06T11:41:33.822Z,2.15
2023-02-06T11:44:55.905Z,3.03
2023-02-06T11:48:33.539Z,2.72
2023-02-06T11:51:56.839Z,2.72
2023-02-06T11:55:23.632Z,2.97
2023-02-06T11:58:47.253Z,5.60
2023-02-06T12:02:28.153Z,2.55
2023-02-06T12:05:50.184Z,3.72
2023-02-06T12:09:13.737Z,2.97
2023-02-06T12:12:40.195Z,2.95
2023-02-06T12:16:07.061Z,5.75
2023-02-06T12:19:33.818Z,13.85
2023-02-06T12:22:58.821Z,5.18
2023-02-06T12:26:23.623Z,8.13
2023-02-06T12:29:50.399Z,4.75
2023-02-06T12:33:18.586Z,6.50
2023-02-06T12:36:53.524Z,5.85
2023-02-06T12:40:26.454Z,3.55
2023-02-06T12:43:54.760Z,5.55
2023-02-06T12:47:23.796Z,4.28
2023-02-06T12:50:51.314Z,3.97
2023-02-06T12:54:18.886Z,3.05
2023-02-06T12:57:41.510Z,3.83
2023-02-06T13:01:29.970Z,7.65
2023-02-06T13:04:55.424Z,7.70
2023-02-06T13:08:22.411Z,5.40
2023-02-06T13:11:45.070Z,8.55
2023-02-06T13:15:09.653Z,4.07
2023-02-06T13:19:02.923Z,10.35
2023-02-06T13:22:46.859Z,4.72
2023-02-06T13:26:10.348Z,4.47
2023-02-06T13:29:34.995Z,4.63
2023-02-06T13:32:58.045Z,3.30
2023-02-06T13:36:26.941Z,2.80
2023-02-06T13:39:50.418Z,2.47
2023-02-06T13:43:20.510Z,2.45
2023-02-06T13:47:22.738Z,5.53
2023-02-06T13:50:59.604Z,4.85
2023-02-06T13:54:35.834Z,4.30
2023-02-06T13:58:20.993Z,6.80
2023-02-06T14:01:43.046Z,8.38
2023-02-06T14:05:07.483Z,9.35
2023-02-06T14:08:45.038Z,8.32
2023-02-06T14:12:34.412Z,6.13
2023-02-06T14:16:06.145Z,4.75
2023-02-06T14:19:35.803Z,5.50
2023-02-06T14:23:10.884Z,5.00
2023-02-06T14:26:42.363Z,5.32
2023-02-06T14:30:19.945Z,8.48
2023-02-06T14:33:55.836Z,7.75
2023-02-06T14:37:37.620Z,7.00
2023-02-06T14:41:02.040Z,6.80
2023-02-06T14:44:28.435Z,7.57
2023-02-06T14:47:54.604Z,9.05
2023-02-06T14:51:25.079Z,4.00
2023-02-06T14:54:46.821Z,4.78
2023-02-06T14:58:20.893Z,4.15
2023-02-06T15:01:44.050Z,6.53
2023-02-06T15:05:07.258Z,5.53
2023-02-06T15:08:32.569Z,6.75
2023-02-06T15:11:57.476Z,7.68
2023-02-06T15:15:21.530Z,14.13
2023-02-06T15:18:43.425Z,16.92
2023-02-06T15:22:08.146Z,24.17
2023-02-06T15:25:41.532Z,16.92
2023-02-06T15:29:06.464Z,28.40
2023-02-06T15:32:30.798Z,41.97
2023-02-06T15:35:54.455Z,79.60
2023-02-06T15:39:17.985Z,28.35
2023-02-06T15:42:41.725Z,17.20
2023-02-06T15:46:06.816Z,17.80
2023-02-06T15:49:38.239Z,14.05
2023-02-06T15:53:00.895Z,13.90
2023-02-06T15:56:27.488Z,13.77
2023-02-06T15:59:50.890Z,10.48
2023-02-06T16:03:20.078Z,7.75
2023-02-06T16:06:42.294Z,8.07
2023-02-06T16:10:22.378Z,10.48
2023-02-06T16:13:47.265Z,12.30
2023-02-06T16:17:26.794Z,14.45
2023-02-06T16:20:49.407Z,12.75
2023-02-06T16:24:17.638Z,15.00
2023-02-06T16:27:45.303Z,14.55
2023-02-06T16:31:07.276Z,14.48
2023-02-06T16:34:42.427Z,13.88
2023-02-06T16:38:04.182Z,12.00
2023-02-06T16:41:33.073Z,12.75
2023-02-06T16:44:59.865Z,17.77
2023-02-06T16:48:21.890Z,21.27
2023-02-06T16:51:46.723Z,25.95
2023-02-06T16:55:17.590Z,17.52
2023-02-06T16:58:39.636Z,29.33
2023-02-06T17:02:01.612Z,25.77
2023-02-06T17:05:25.458Z,19.92
2023-02-06T17:08:49.339Z,19.48
2023-02-06T17:12:15.332Z,15.82
2023-02-06T17:15:37.934Z,8.02
2023-02-06T17:18:59.697Z,14.85
2023-02-06T17:22:21.577Z,27.67
2023-02-06T17:25:45.986Z,18.13
2023-02-06T17:29:07.682Z,19.80
2023-02-06T17:32:29.438Z,14.43
2023-02-06T17:35:51.636Z,12.30
2023-02-06T17:39:14.088Z,19.45
2023-02-06T17:42:37.169Z,18.15
2023-02-06T17:45:59.190Z,15.55
2023-02-06T17:49:21.072Z,20.10
2023-02-06T17:52:43.057Z,18.02
2023-02-06T17:56:06.986Z,18.92
2023-02-06T17:59:30.270Z,11.90
2023-02-06T18:02:52.984Z,9.45
2023-02-06T18:06:15.544Z,14.02
2023-02-06T18:09:38.137Z,10.15
2023-02-06T18:13:02.237Z,10.45
2023-02-06T18:16:28.206Z,10.48
2023-02-06T18:19:50.835Z,12.82
2023-02-06T18:23:13.428Z,10.85
2023-02-06T18:26:35.866Z,7.47
2023-02-06T18:29:57.664Z,8.45
2023-02-06T18:33:21.083Z,7.45
2023-02-06T18:36:43.381Z,11.07
2023-02-06T18:40:06.036Z,10.27
2023-02-06T18:43:29.335Z,12.15
2023-02-06T18:46:51.878Z,15.23
2023-02-06T18:50:17.654Z,12.38
2023-02-06T18:53:39.428Z,14.63
2023-02-06T18:57:01.738Z,13.98
2023-02-06T19:00:24.910Z,9.82
2023-02-06T19:03:47.372Z,7.88
2023-02-06T19:07:11.847Z,6.82
2023-02-06T19:10:33.728Z,7.38
2023-02-06T19:13:56.258Z,7.18
2023-02-06T19:17:18.189Z,8.50
2023-02-06T19:20:42.706Z,8.40
2023-02-06T19:24:06.831Z,8.18
2023-02-06T19:27:28.873Z,5.97
2023-02-06T19:30:51.208Z,7.20
2023-02-06T19:34:13.216Z,5.25
2023-02-06T19:37:35.285Z,6.05
2023-02-06T19:40:58.508Z,5.13
2023-02-06T19:44:20.464Z,3.83
2023-02-06T19:47:43.244Z,6.32
2023-02-06T19:51:06.957Z,8.80
2023-02-06T19:54:29.477Z,7.53
2023-02-06T19:57:53.903Z,6.28
2023-02-06T20:01:17.868Z,17.02
2023-02-06T20:04:40.682Z,12.15
2023-02-06T20:08:02.577Z,12.05
2023-02-06T20:11:24.562Z,10.93
2023-02-06T20:14:48.072Z,10.88
2023-02-06T20:18:09.823Z,10.70
2023-02-06T20:21:34.321Z,10.40
2023-02-06T20:24:56.410Z,9.40
2023-02-06T20:28:18.701Z,9.63
2023-02-06T20:31:42.256Z,11.23
2023-02-06T20:35:04.315Z,9.68
2023-02-06T20:38:26.322Z,11.05
2023-02-06T20:41:49.641Z,8.43
2023-02-06T20:45:12.548Z,7.70
2023-02-06T20:48:36.695Z,6.75
2023-02-06T20:51:58.547Z,7.30
2023-02-06T20:55:20.557Z,6.68
2023-02-06T20:58:43.128Z,8.05
2023-02-06T21:02:05.179Z,9.25
2023-02-06T21:05:28.824Z,9.38
2023-02-06T21:08:52.972Z,10.93
2023-02-06T21:12:14.984Z,10.65
2023-02-06T21:15:37.198Z,10.30
2023-02-06T21:19:00.236Z,7.55
2023-02-06T21:22:23.791Z,5.78
2023-02-06T21:25:52.212Z,7.45
2023-02-06T21:29:16.042Z,5.65
2023-02-06T21:32:38.080Z,7.07
2023-02-06T21:36:00.035Z,6.50
2023-02-06T21:39:27.275Z,10.13
2023-02-06T21:42:49.491Z,11.15
2023-02-06T21:46:13.044Z,10.23
2023-02-06T21:49:35.368Z,7.60
2023-02-06T21:52:57.460Z,12.70
2023-02-06T21:56:23.515Z,8.70
2023-02-06T21:59:45.486Z,7.68
2023-02-06T22:03:07.547Z,6.95
2023-02-06T22:06:29.874Z,8.55
2023-02-06T22:09:52.006Z,6.95
2023-02-06T22:13:15.508Z,6.45
2023-02-06T22:16:37.715Z,5.47
2023-02-06T22:19:59.805Z,4.97
2023-02-06T22:23:21.654Z,3.45
2023-02-06T22:26:44.435Z,3.03
2023-02-06T22:30:09.095Z,2.30
2023-02-06T22:33:30.761Z,3.42
2023-02-06T22:36:52.854Z,3.38
2023-02-06T22:40:14.730Z,2.30
2023-02-06T22:43:38.786Z,3.55
2023-02-06T22:47:02.309Z,2.10
2023-02-06T22:50:24.802Z,3.00
2023-02-06T22:53:46.802Z,3.38
2023-02-06T22:57:08.651Z,4.43
2023-02-06T23:00:30.772Z,3.65
2023-02-06T23:03:58.247Z,3.15
2023-02-06T23:07:21.210Z,2.47
2023-02-06T23:10:50.235Z,4.10
2023-02-06T23:14:15.117Z,4.95
2023-02-06T23:17:38.494Z,4.15
2023-02-06T23:21:05.955Z,2.17
2023-02-06T23:24:28.913Z,3.67
2023-02-06T23:27:51.687Z,4.88
2023-02-06T23:31:16.859Z,3.80
2023-02-06T23:34:40.128Z,4.45
2023-02-06T23:38:04.948Z,4.80
2023-02-06T23:41:30.582Z,3.40
2023-02-06T23:44:53.121Z,4.35
2023-02-06T23:48:15.811Z,3.65
2023-02-06T23:51:39.850Z,3.25
2023-02-06T23:55:04.458Z,3.95
2023-02-06T23:58:28.644Z,3.97
